createdAt,value
2023-04-01T00:01:05.460Z,40.20
2023-04-01T00:03:34.371Z,34.83
2023-04-01T00:06:01.774Z,44.53
2023-04-01T00:08:28.696Z,37.03
2023-04-01T00:10:55.538Z,33.70
2023-04-01T00:13:22.314Z,33.33
2023-04-01T00:15:49.159Z,44.20
2023-04-01T00:18:15.943Z,34.53
2023-04-01T00:20:48.252Z,34.17
2023-04-01T00:23:15.510Z,36.60
2023-04-01T00:25:42.195Z,45.27
2023-04-01T00:28:08.881Z,33.30
2023-04-01T00:30:37.536Z,34.10
2023-04-01T00:33:04.490Z,38.73
2023-04-01T00:35:31.205Z,44.87
2023-04-01T00:37:58.305Z,35.27
2023-04-01T00:40:32.914Z,36.20
2023-04-01T00:42:59.431Z,35.47
2023-04-01T00:45:31.120Z,36.87
2023-04-01T00:48:01.133Z,36.40
2023-04-01T00:50:28.432Z,38.37
2023-04-01T00:52:54.946Z,40.50
2023-04-01T00:55:22.790Z,36.67
2023-04-01T00:57:50.734Z,37.93
2023-04-01T01:00:18.321Z,39.57
2023-04-01T01:02:47.386Z,32.47
2023-04-01T01:05:15.879Z,35.23
2023-04-01T01:08:16.119Z,33.73
2023-04-01T01:10:43.525Z,34.07
2023-04-01T01:13:27.009Z,34.13
2023-04-01T01:16:07.974Z,26.10
2023-04-01T01:18:50.574Z,28.93
2023-04-01T01:21:54.703Z,24.93
2023-04-01T01:24:32.639Z,18.17
2023-04-01T01:27:12.709Z,18.83
2023-04-01T01:30:04.019Z,16.70
2023-04-01T01:32:39.518Z,15.53
2023-04-01T01:35:50.892Z,16.57
2023-04-01T01:38:20.841Z,16.47
2023-04-01T01:40:52.785Z,13.47
2023-04-01T01:43:22.719Z,13.27
2023-04-01T01:45:52.866Z,10.23
2023-04-01T01:48:20.873Z,11.37
2023-04-01T01:50:48.718Z,11.47
2023-04-01T01:53:15.317Z,8.97
2023-04-01T01:55:44.692Z,8.87
2023-04-01T01:58:11.214Z,7.43
2023-04-01T02:00:38.083Z,7.93
2023-04-01T02:03:05.593Z,7.33
2023-04-01T02:05:32.876Z,6.47
2023-04-01T02:08:07.682Z,6.43
2023-04-01T02:10:37.165Z,6.20
2023-04-01T02:13:09.032Z,7.17
2023-04-01T02:15:39.839Z,8.53
2023-04-01T02:18:06.987Z,5.90
2023-04-01T02:20:33.639Z,7.97
2023-04-01T02:23:00.736Z,7.47
2023-04-01T02:25:35.444Z,7.07
2023-04-01T02:28:05.276Z,6.80
2023-04-01T02:30:33.478Z,8.17
2023-04-01T02:33:00.319Z,6.50
2023-04-01T02:35:27.407Z,7.00
2023-04-01T02:37:55.378Z,6.17
2023-04-01T02:40:22.266Z,6.10
2023-04-01T02:42:48.821Z,6.97
2023-04-01T02:45:15.805Z,7.60
2023-04-01T02:47:42.546Z,6.70
2023-04-01T02:50:09.871Z,5.03
2023-04-01T02:52:36.558Z,5.37
2023-04-01T02:55:03.911Z,4.50
2023-04-01T02:57:30.698Z,4.73
2023-04-01T02:59:57.295Z,5.73
2023-04-01T03:02:23.786Z,3.63
2023-04-01T03:04:50.351Z,4.90
2023-04-01T03:07:17.181Z,4.73
2023-04-01T03:09:43.691Z,4.70
2023-04-01T03:12:10.244Z,5.13
2023-04-01T03:14:36.766Z,4.23
2023-04-01T03:17:03.259Z,3.30
2023-04-01T03:19:29.898Z,3.40
2023-04-01T03:21:56.344Z,3.47
2023-04-01T03:24:22.893Z,2.57
2023-04-01T03:26:49.510Z,3.57
2023-04-01T03:29:17.004Z,3.10
2023-04-01T03:31:43.731Z,2.80
2023-04-01T03:34:10.665Z,3.37
2023-04-01T03:36:37.583Z,4.10
2023-04-01T03:39:04.807Z,5.03
2023-04-01T03:41:31.799Z,3.67
2023-04-01T03:43:58.339Z,3.70
2023-04-01T03:46:25.159Z,4.17
2023-04-01T03:48:51.719Z,3.63
2023-04-01T03:51:18.250Z,3.40
2023-04-01T03:53:44.788Z,3.50
2023-04-01T03:56:11.404Z,2.97
2023-04-01T03:58:38.116Z,3.50
2023-04-01T04:01:05.378Z,3.60
2023-04-01T04:03:32.377Z,2.77
2023-04-01T04:05:58.946Z,2.90
2023-04-01T04:08:25.506Z,3.20
2023-04-01T04:10:58.236Z,2.73
2023-04-01T04:13:24.694Z,4.00
2023-04-01T04:15:51.192Z,2.20
2023-04-01T04:18:17.703Z,2.27
2023-04-01T04:20:46.862Z,1.93
2023-04-01T04:23:13.308Z,1.93
2023-04-01T04:25:39.774Z,1.77
2023-04-01T04:28:06.279Z,2.00
2023-04-01T04:30:32.777Z,3.10
2023-04-01T04:32:59.252Z,22.10
2023-04-01T04:35:25.760Z,2.30
2023-04-01T04:37:52.213Z,2.20
2023-04-01T04:40:18.676Z,2.10
2023-04-01T04:42:45.575Z,2.60
2023-04-01T04:45:13.678Z,1.63
2023-04-01T04:47:40.331Z,1.47
2023-04-01T04:50:07.706Z,1.87
2023-04-01T04:52:34.159Z,1.70
2023-04-01T04:55:00.846Z,3.30
2023-04-01T04:57:27.397Z,2.40
2023-04-01T04:59:53.974Z,2.40
2023-04-01T05:02:20.601Z,2.07
2023-04-01T05:04:47.092Z,2.63
2023-04-01T05:07:13.576Z,2.07
2023-04-01T05:09:40.085Z,1.90
2023-04-01T05:12:06.675Z,2.70
2023-04-01T05:14:33.110Z,4.17
2023-04-01T05:16:59.703Z,3.13
2023-04-01T05:19:26.254Z,2.27
2023-04-01T05:21:53.929Z,3.33
2023-04-01T05:24:20.389Z,2.30
2023-04-01T05:26:46.995Z,3.30
2023-04-01T05:29:13.509Z,3.83
2023-04-01T05:31:40.053Z,3.37
2023-04-01T05:34:06.537Z,2.40
2023-04-01T05:36:33.052Z,2.93
2023-04-01T05:38:59.496Z,2.30
2023-04-01T05:41:26.166Z,2.23
2023-04-01T05:43:52.591Z,3.07
2023-04-01T05:46:19.097Z,4.03
2023-04-01T05:48:45.613Z,2.33
2023-04-01T05:51:15.895Z,2.30
2023-04-01T05:53:43.054Z,1.90
2023-04-01T05:56:10.581Z,2.10
2023-04-01T05:58:37.864Z,4.13
2023-04-01T06:01:12.737Z,4.90
2023-04-01T06:03:42.479Z,10.33
2023-04-01T06:06:30.439Z,2.30
2023-04-01T06:08:59.168Z,2.70
2023-04-01T06:11:52.533Z,4.27
2023-04-01T06:14:32.083Z,2.00
2023-04-01T06:17:11.461Z,1.80
2023-04-01T06:20:06.364Z,1.57
2023-04-01T06:22:48.233Z,1.97
2023-04-01T06:25:44.002Z,2.33
2023-04-01T06:28:47.562Z,1.50
2023-04-01T06:31:26.419Z,3.50
2023-04-01T06:33:58.871Z,2.80
2023-04-01T06:36:48.547Z,2.07
2023-04-01T06:39:38.440Z,1.97
2023-04-01T06:42:15.325Z,1.60
2023-04-01T06:44:51.218Z,2.50
2023-04-01T06:47:52.590Z,1.70
2023-04-01T06:50:26.404Z,1.67
2023-04-01T06:53:23.283Z,2.13
2023-04-01T06:56:20.055Z,1.97
2023-04-01T06:58:52.712Z,1.87
2023-04-01T07:01:31.050Z,1.27
2023-04-01T07:04:04.895Z,1.50
2023-04-01T07:06:42.527Z,1.40
2023-04-01T07:09:17.206Z,1.20
2023-04-01T07:11:44.315Z,1.43
2023-04-01T07:14:33.625Z,1.77
2023-04-01T07:17:10.023Z,1.73
2023-04-01T07:19:48.886Z,1.87
2023-04-01T07:22:27.365Z,5.90
2023-04-01T07:24:54.977Z,2.73
2023-04-01T07:27:21.614Z,3.13
2023-04-01T07:29:48.433Z,2.17
2023-04-01T07:32:21.608Z,2.53
2023-04-01T07:35:25.677Z,1.83
2023-04-01T07:38:12.473Z,2.30
2023-04-01T07:40:38.916Z,1.43
2023-04-01T07:43:19.971Z,2.53
2023-04-01T07:45:56.676Z,3.27
2023-04-01T07:48:49.505Z,1.70
2023-04-01T07:51:18.896Z,2.13
2023-04-01T07:54:06.933Z,1.97
2023-04-01T07:56:42.531Z,2.07
2023-04-01T07:59:35.244Z,1.87
2023-04-01T08:02:06.430Z,5.10
2023-04-01T08:04:43.149Z,2.30
2023-04-01T08:07:26.222Z,2.10
2023-04-01T08:09:57.638Z,2.03
2023-04-01T08:12:46.955Z,2.07
2023-04-01T08:15:22.392Z,2.10
2023-04-01T08:18:06.090Z,1.53
2023-04-01T08:20:38.398Z,2.50
2023-04-01T08:23:12.762Z,1.20
2023-04-01T08:25:53.820Z,1.63
2023-04-01T08:28:40.620Z,2.93
2023-04-01T08:31:11.883Z,2.50
2023-04-01T08:33:39.086Z,3.40
2023-04-01T08:36:16.864Z,1.83
2023-04-01T08:39:05.842Z,2.87
2023-04-01T08:41:47.495Z,3.30
2023-04-01T08:44:28.548Z,1.97
2023-04-01T08:47:13.686Z,2.40
2023-04-01T08:49:43.270Z,4.17
2023-04-01T08:52:22.636Z,1.63
2023-04-01T08:55:14.549Z,1.83
2023-04-01T08:57:48.038Z,2.33
2023-04-01T09:00:47.980Z,2.40
2023-04-01T09:03:37.799Z,2.13
2023-04-01T09:06:32.202Z,2.67
2023-04-01T09:09:18.550Z,3.10
2023-04-01T09:12:04.592Z,3.70
2023-04-01T09:14:35.285Z,3.57
2023-04-01T09:17:15.758Z,2.70
2023-04-01T09:19:58.516Z,2.17
2023-04-01T09:22:34.816Z,2.90
2023-04-01T09:25:32.185Z,3.27
2023-04-01T09:28:09.884Z,3.00
2023-04-01T09:30:58.315Z,2.53
2023-04-01T09:33:52.883Z,4.70
2023-04-01T09:36:22.721Z,4.17
2023-04-01T09:38:55.294Z,3.30
2023-04-01T09:41:43.307Z,2.70
2023-04-01T09:44:21.338Z,3.43
2023-04-01T09:47:25.500Z,3.47
2023-04-01T09:50:07.137Z,3.77
2023-04-01T09:52:48.348Z,5.03
2023-04-01T09:55:51.868Z,5.33
2023-04-01T09:58:51.767Z,2.67
2023-04-01T10:01:37.281Z,4.13
2023-04-01T10:04:24.948Z,4.57
2023-04-01T10:06:52.353Z,4.47
2023-04-01T10:10:10.102Z,4.40
2023-04-01T10:13:01.361Z,6.00
2023-04-01T10:16:05.357Z,5.63
2023-04-01T10:19:16.920Z,10.33
2023-04-01T10:22:10.933Z,7.13
2023-04-01T10:25:00.335Z,7.30
2023-04-01T10:27:36.151Z,7.00
2023-04-01T10:30:56.854Z,7.87
2023-04-01T10:34:14.541Z,7.50
2023-04-01T10:36:54.908Z,7.00
2023-04-01T10:39:36.569Z,7.07
2023-04-01T10:42:21.939Z,4.80
2023-04-01T10:45:03.576Z,8.67
2023-04-01T10:47:57.994Z,8.87
2023-04-01T10:50:43.236Z,9.33
2023-04-01T10:53:24.028Z,6.70
2023-04-01T10:56:10.443Z,8.77
2023-04-01T10:58:52.266Z,9.27
2023-04-01T11:01:21.509Z,5.77
2023-04-01T11:04:15.737Z,8.53
2023-04-01T11:07:10.776Z,9.37
2023-04-01T11:10:15.669Z,7.33
2023-04-01T11:13:03.922Z,11.93
2023-04-01T11:15:54.138Z,6.97
2023-04-01T11:18:49.757Z,8.30
2023-04-01T11:21:41.386Z,8.23
2023-04-01T11:24:45.878Z,10.40
2023-04-01T11:27:46.474Z,9.30
2023-04-01T11:30:35.478Z,10.30
2023-04-01T11:33:06.193Z,5.53
2023-04-01T11:35:44.835Z,6.67
2023-04-01T11:38:33.109Z,5.37
2023-04-01T11:41:26.486Z,8.40
2023-04-01T11:44:19.234Z,4.60
2023-04-01T11:47:23.349Z,9.30
2023-04-01T11:50:15.477Z,7.97
2023-04-01T11:53:03.364Z,8.73
2023-04-01T11:55:50.474Z,8.77
2023-04-01T11:58:48.872Z,9.63
2023-04-01T12:01:27.944Z,11.77
2023-04-01T12:04:15.910Z,7.33
2023-04-01T12:07:07.430Z,9.03
2023-04-01T12:09:57.686Z,7.20
2023-04-01T12:12:54.106Z,14.17
2023-04-01T12:15:42.001Z,11.30
2023-04-01T12:18:18.379Z,38.93
2023-04-01T12:20:57.667Z,8.07
2023-04-01T12:24:03.371Z,9.37
2023-04-01T12:27:07.404Z,11.40
2023-04-01T12:29:51.522Z,8.20
2023-04-01T12:32:48.285Z,7.80
2023-04-01T12:35:25.829Z,12.57
2023-04-01T12:37:59.158Z,10.53
2023-04-01T12:40:33.013Z,9.83
2023-04-01T12:43:16.586Z,12.07
2023-04-01T12:45:51.975Z,6.30
2023-04-01T12:48:21.466Z,8.80
2023-04-01T12:50:54.163Z,7.87
2023-04-01T12:53:27.406Z,6.30
2023-04-01T12:55:53.983Z,8.83
2023-04-01T12:59:01.028Z,14.70
2023-04-01T13:01:53.036Z,9.87
2023-04-01T13:04:56.854Z,10.50
2023-04-01T13:07:32.546Z,6.60
2023-04-01T13:10:37.232Z,8.27
2023-04-01T13:13:04.421Z,8.90
2023-04-01T13:15:33.829Z,7.70
2023-04-01T13:18:14.277Z,6.67
2023-04-01T13:20:45.813Z,9.87
2023-04-01T13:23:34.272Z,7.13
2023-04-01T13:26:20.119Z,6.60
2023-04-01T13:29:27.173Z,9.50
2023-04-01T13:32:43.272Z,8.77
2023-04-01T13:35:19.625Z,4.57
2023-04-01T13:37:53.930Z,5.60
2023-04-01T13:40:29.922Z,7.67
2023-04-01T13:43:01.326Z,8.43
2023-04-01T13:45:44.309Z,8.63
2023-04-01T13:48:29.616Z,8.00
2023-04-01T13:51:23.911Z,6.13
2023-04-01T13:54:05.474Z,7.70
2023-04-01T13:56:34.922Z,8.23
2023-04-01T13:59:07.857Z,11.97
2023-04-01T14:01:51.221Z,14.83
2023-04-01T14:04:49.281Z,10.93
2023-04-01T14:07:43.980Z,9.90
2023-04-01T14:10:36.651Z,11.73
2023-04-01T14:13:15.483Z,9.97
2023-04-01T14:15:57.991Z,7.17
2023-04-01T14:18:42.681Z,10.63
2023-04-01T14:21:21.180Z,10.93
2023-04-01T14:23:56.230Z,10.87
2023-04-01T14:26:43.095Z,8.77
2023-04-01T14:29:18.596Z,9.00
2023-04-01T14:32:07.889Z,7.33
2023-04-01T14:34:53.149Z,6.23
2023-04-01T14:37:50.085Z,7.50
2023-04-01T14:40:19.849Z,6.60
2023-04-01T14:43:14.242Z,5.23
2023-04-01T14:45:56.295Z,6.30
2023-04-01T14:48:35.312Z,5.23
2023-04-01T14:51:30.772Z,7.73
2023-04-01T14:54:17.948Z,7.73
2023-04-01T14:56:48.637Z,6.53
2023-04-01T14:59:21.525Z,6.33
2023-04-01T15:01:59.862Z,6.23
2023-04-01T15:04:42.448Z,6.17
2023-04-01T15:07:46.807Z,6.90
2023-04-01T15:10:41.130Z,6.37
2023-04-01T15:13:15.291Z,6.77
2023-04-01T15:16:09.727Z,5.30
2023-04-01T15:19:01.005Z,6.67
2023-04-01T15:21:39.010Z,6.50
2023-04-01T15:24:09.052Z,7.53
2023-04-01T15:27:00.392Z,8.83
2023-04-01T15:29:42.229Z,5.00
2023-04-01T15:32:21.080Z,7.27
2023-04-01T15:34:59.431Z,5.93
2023-04-01T15:37:41.201Z,5.03
2023-04-01T15:40:19.012Z,7.60
2023-04-01T15:43:07.478Z,4.87
2023-04-01T15:45:47.109Z,6.03
2023-04-01T15:48:46.176Z,7.23
2023-04-01T15:51:23.386Z,5.80
2023-04-01T15:54:26.748Z,6.40
2023-04-01T15:57:11.409Z,10.13
2023-04-01T15:59:43.882Z,10.83
2023-04-01T16:03:01.691Z,4.60
2023-04-01T16:05:53.904Z,7.40
2023-04-01T16:08:41.739Z,7.70
2023-04-01T16:11:37.593Z,11.33
2023-04-01T16:14:48.048Z,7.10
2023-04-01T16:17:35.969Z,7.93
2023-04-01T16:20:43.302Z,6.70
2023-04-01T16:23:34.638Z,8.97
2023-04-01T16:26:19.311Z,7.03
2023-04-01T16:29:05.511Z,8.10
2023-04-01T16:31:51.912Z,5.93
2023-04-01T16:34:22.505Z,5.57
2023-04-01T16:36:53.963Z,4.70
2023-04-01T16:40:08.606Z,5.93
2023-04-01T16:42:54.393Z,7.00
2023-04-01T16:45:30.101Z,5.97
2023-04-01T16:48:01.337Z,4.07
2023-04-01T16:50:50.140Z,5.03
2023-04-01T16:53:22.830Z,6.03
2023-04-01T16:56:01.629Z,5.67
2023-04-01T16:58:36.220Z,8.80
2023-04-01T17:01:13.842Z,8.33
2023-04-01T17:03:53.470Z,4.53
2023-04-01T17:06:32.450Z,4.70
2023-04-01T17:09:46.750Z,6.37
2023-04-01T17:12:32.239Z,3.17
2023-04-01T17:15:35.685Z,4.57
2023-04-01T17:18:14.533Z,6.30
2023-04-01T17:20:41.121Z,6.30
2023-04-01T17:23:37.169Z,7.23
2023-04-01T17:26:31.658Z,10.87
2023-04-01T17:29:16.203Z,4.50
2023-04-01T17:32:08.891Z,8.27
2023-04-01T17:34:47.720Z,6.07
2023-04-01T17:37:32.970Z,15.33
2023-04-01T17:40:02.393Z,5.57
2023-04-01T17:42:37.918Z,4.53
2023-04-01T17:45:12.180Z,8.00
2023-04-01T17:47:42.945Z,3.57
2023-04-01T17:50:29.331Z,4.37
2023-04-01T17:53:20.697Z,4.70
2023-04-01T17:56:09.478Z,4.73
2023-04-01T17:58:47.314Z,3.70
2023-04-01T18:01:25.550Z,4.33
2023-04-01T18:03:57.924Z,7.83
2023-04-01T18:06:24.690Z,5.57
2023-04-01T18:09:00.968Z,5.17
2023-04-01T18:11:42.488Z,3.97
2023-04-01T18:14:42.883Z,3.00
2023-04-01T18:17:43.904Z,3.63
2023-04-01T18:20:19.780Z,7.93
2023-04-01T18:22:58.542Z,7.67
2023-04-01T18:25:31.333Z,9.37
2023-04-01T18:28:07.179Z,7.87
2023-04-01T18:30:35.809Z,4.97
2023-04-01T18:33:19.577Z,7.80
2023-04-01T18:35:54.134Z,4.20
2023-04-01T18:38:35.520Z,7.10
2023-04-01T18:41:15.436Z,6.13
2023-04-01T18:43:57.321Z,3.37
2023-04-01T18:46:35.220Z,8.60
2023-04-01T18:49:09.421Z,6.00
2023-04-01T18:51:35.963Z,12.90
2023-04-01T18:54:15.902Z,11.77
2023-04-01T18:56:44.616Z,7.83
2023-04-01T18:59:20.529Z,8.03
2023-04-01T19:02:00.419Z,10.83
2023-04-01T19:04:58.334Z,6.63
2023-04-01T19:07:41.647Z,7.73
2023-04-01T19:10:33.350Z,5.80
2023-04-01T19:13:22.160Z,3.83
2023-04-01T19:15:48.698Z,4.47
2023-04-01T19:18:42.761Z,3.87
2023-04-01T19:21:15.401Z,6.57
2023-04-01T19:24:19.729Z,8.07
2023-04-01T19:27:00.383Z,4.63
2023-04-01T19:29:26.914Z,5.87
2023-04-01T19:31:59.468Z,5.47
2023-04-01T19:34:35.327Z,5.27
2023-04-01T19:37:23.571Z,8.73
2023-04-01T19:40:01.275Z,6.53
2023-04-01T19:42:43.125Z,11.70
2023-04-01T19:45:54.245Z,4.40
2023-04-01T19:48:39.613Z,6.53
2023-04-01T19:51:14.676Z,6.77
2023-04-01T19:53:59.539Z,3.57
2023-04-01T19:56:34.721Z,3.63
2023-04-01T19:59:20.025Z,4.53
2023-04-01T20:01:51.381Z,4.13
2023-04-01T20:04:26.042Z,6.60
2023-04-01T20:07:02.315Z,6.50
2023-04-01T20:09:47.456Z,5.13
2023-04-01T20:12:29.040Z,4.27
2023-04-01T20:14:58.366Z,10.63
2023-04-01T20:17:45.671Z,7.70
2023-04-01T20:20:12.123Z,6.87
2023-04-01T20:22:44.642Z,6.47
2023-04-01T20:25:22.167Z,7.03
2023-04-01T20:27:53.113Z,8.47
2023-04-01T20:30:35.923Z,4.73
2023-04-01T20:33:26.327Z,6.37
2023-04-01T20:36:21.517Z,4.33
2023-04-01T20:39:03.238Z,4.80
2023-04-01T20:42:00.718Z,6.10
2023-04-01T20:44:46.597Z,4.13
2023-04-01T20:47:50.773Z,3.60
2023-04-01T20:50:31.795Z,5.37
2023-04-01T20:53:06.484Z,3.70
2023-04-01T20:55:48.604Z,6.33
2023-04-01T20:58:50.485Z,8.87
2023-04-01T21:01:43.512Z,6.13
2023-04-01T21:04:42.301Z,6.23
2023-04-01T21:07:33.550Z,6.00
2023-04-01T21:10:09.082Z,5.33
2023-04-01T21:12:55.260Z,5.30
2023-04-01T21:15:34.766Z,7.87
2023-04-01T21:18:18.141Z,5.97
2023-04-01T21:20:48.375Z,4.17
2023-04-01T21:23:21.253Z,9.87
2023-04-01T21:25:51.730Z,6.50
2023-04-01T21:28:34.539Z,4.70
2023-04-01T21:31:12.420Z,4.93
2023-04-01T21:33:50.386Z,6.97
2023-04-01T21:36:26.357Z,6.07
2023-04-01T21:39:12.290Z,5.57
2023-04-01T21:41:54.337Z,10.67
2023-04-01T21:44:42.232Z,4.67
2023-04-01T21:47:26.538Z,2.97
2023-04-01T21:50:20.657Z,5.50
2023-04-01T21:52:57.837Z,3.30
2023-04-01T21:55:24.260Z,6.50
2023-04-01T21:58:03.001Z,7.43
2023-04-01T22:01:21.882Z,3.03
2023-04-01T22:03:48.428Z,2.90
2023-04-01T22:06:28.072Z,6.03
2023-04-01T22:09:12.156Z,4.43
2023-04-01T22:11:46.096Z,5.40
2023-04-01T22:15:02.421Z,6.60
2023-04-01T22:17:34.307Z,5.63
2023-04-01T22:20:15.633Z,3.23
2023-04-01T22:22:57.865Z,4.53
2023-04-01T22:25:39.655Z,5.47
2023-04-01T22:28:10.232Z,5.37
2023-04-01T22:30:49.878Z,5.70
2023-04-01T22:33:40.868Z,5.77
2023-04-01T22:36:34.723Z,4.93
2023-04-01T22:39:23.721Z,3.97
2023-04-01T22:42:16.808Z,5.17
2023-04-01T22:45:01.930Z,6.17
2023-04-01T22:47:31.282Z,5.73
2023-04-01T22:50:03.342Z,7.37
2023-04-01T22:52:35.635Z,5.80
2023-04-01T22:55:25.830Z,9.77
2023-04-01T22:58:02.758Z,8.87
2023-04-01T23:00:55.736Z,16.30
2023-04-01T23:03:31.789Z,20.93
2023-04-01T23:06:00.560Z,19.87
2023-04-01T23:08:42.692Z,11.07
2023-04-01T23:11:13.699Z,6.83
2023-04-01T23:13:46.563Z,5.23
2023-04-01T23:16:13.757Z,5.10
2023-04-01T23:18:53.315Z,3.63
2023-04-01T23:21:24.504Z,3.27
2023-04-01T23:24:03.577Z,5.43
2023-04-01T23:27:04.278Z,5.43
2023-04-01T23:29:31.136Z,6.17
2023-04-01T23:32:01.902Z,3.53
2023-04-01T23:34:33.796Z,4.50
2023-04-01T23:37:05.802Z,4.37
2023-04-01T23:39:39.387Z,5.17
2023-04-01T23:42:13.903Z,6.70
2023-04-01T23:44:41.039Z,4.30
2023-04-01T23:47:10.149Z,5.27
2023-04-01T23:49:48.932Z,3.30
2023-04-01T23:52:25.364Z,4.07
2023-04-01T23:55:20.870Z,3.70
2023-04-01T23:58:23.180Z,5.47
